Time;durP1;ratioP1;P1;durP2;ratioP2;P2;SDS_P1;SDS_P2;PMS_P1;PMS_P2;Temp;Humidity;BMP_temperature;BMP_pressure;BME280_temperature;BME280_humidity;BME280_pressure;Samples;Min_cycle;Max_cycle;Signal;HPM_P1;HPM_P2
2021/06/20 00:00:33;;;;;;;53.78;31.55;;;;;;;18.53;89.20;100603.97;5133261;27;20061;-58
2021/06/20 00:03:01;;;;;;;49.80;31.25;;;;;;;18.47;89.80;100593.94;5118456;27;20054;-58
2021/06/20 00:05:33;;;;;;;51.85;31.85;;;;;;;18.53;89.34;100591.47;5115510;27;20055;-58
2021/06/20 00:08:00;;;;;;;43.60;29.83;;;;;;;18.50;89.58;100586.47;5134549;27;20080;-59
2021/06/20 00:10:27;;;;;;;41.15;29.38;;;;;;;18.52;89.38;100580.97;5135010;27;20271;-58
2021/06/20 00:12:57;;;;;;;37.88;29.52;;;;;;;18.48;89.90;100567.13;5133322;27;20047;-57
2021/06/20 00:15:25;;;;;;;36.65;26.55;;;;;;;18.53;89.70;100569.34;5132904;27;20039;-57
2021/06/20 00:17:52;;;;;;;38.05;29.85;;;;;;;18.51;90.01;100550.03;5114811;27;20080;-57
2021/06/20 00:20:22;;;;;;;35.90;28.00;;;;;;;18.49;89.62;100546.69;5133962;27;20069;-57
2021/06/20 00:22:50;;;;;;;42.22;30.23;;;;;;;18.50;89.95;100548.34;5116414;27;20044;-58
2021/06/20 00:25:16;;;;;;;48.20;29.63;;;;;;;18.43;90.39;100564.13;5134850;27;20100;-57
2021/06/20 00:27:45;;;;;;;45.80;29.92;;;;;;;18.53;89.96;100545.38;5133145;27;20115;-56
2021/06/20 00:30:15;;;;;;;39.42;29.00;;;;;;;18.53;90.15;100545.38;5133006;27;20043;-56
2021/06/20 00:32:43;;;;;;;39.47;29.08;;;;;;;18.57;90.40;100536.09;5132906;27;20050;-56
2021/06/20 00:35:10;;;;;;;33.85;26.58;;;;;;;18.65;90.11;100530.78;5133239;27;20115;-58
2021/06/20 00:37:37;;;;;;;41.17;29.50;;;;;;;18.64;90.60;100534.44;5133000;27;20043;-58
2021/06/20 00:40:05;;;;;;;40.55;28.00;;;;;;;18.62;90.39;100517.78;5132382;27;20129;-57
2021/06/20 00:42:33;;;;;;;40.67;28.85;;;;;;;18.67;90.43;100530.63;5132994;27;20528;-57
2021/06/20 00:44:59;;;;;;;38.25;27.73;;;;;;;18.77;90.32;100527.81;5131833;27;20552;-58
2021/06/20 00:47:26;;;;;;;34.95;25.48;;;;;;;18.86;90.25;100530.34;5114429;27;20035;-58
2021/06/20 00:49:53;;;;;;;33.55;26.17;;;;;;;18.85;90.36;100533.19;5081134;27;20138;-57
2021/06/20 00:52:20;;;;;;;35.78;27.05;;;;;;;18.82;90.50;100529.00;5133120;27;20424;-58
2021/06/20 00:54:47;;;;;;;34.38;26.88;;;;;;;18.90;90.31;100526.41;5133069;27;20104;-58
2021/06/20 00:57:16;;;;;;;36.33;26.60;;;;;;;18.97;89.90;100523.09;5135484;27;20051;-58
2021/06/20 00:59:44;;;;;;;35.78;26.52;;;;;;;18.97;90.05;100521.25;5114283;27;20066;-58
2021/06/20 01:02:12;;;;;;;37.78;27.08;;;;;;;18.99;89.91;100516.59;5114218;27;20054;-57
2021/06/20 01:04:43;;;;;;;35.60;26.98;;;;;;;19.02;90.33;100521.59;5132751;27;20143;-58
2021/06/20 01:07:13;;;;;;;37.08;28.02;;;;;;;19.00;90.64;100523.59;5099790;27;20066;-58
2021/06/20 01:09:40;;;;;;;34.95;26.10;;;;;;;19.04;90.37;100527.59;5133342;27;20057;-56
2021/06/20 01:12:07;;;;;;;35.50;26.98;;;;;;;19.08;90.48;100525.44;5132029;27;20043;-57
2021/06/20 01:14:35;;;;;;;33.50;24.40;;;;;;;19.10;90.40;100526.09;5117525;27;20046;-57
2021/06/20 01:17:03;;;;;;;31.23;24.30;;;;;;;19.13;90.15;100524.94;5098700;27;20047;-57
2021/06/20 01:19:30;;;;;;;28.45;23.10;;;;;;;19.15;90.19;100518.44;5133009;27;20039;-56
2021/06/20 01:22:12;;;;;;;33.35;23.50;;;;;;;19.14;90.71;100519.47;5134368;27;20502;-56
2021/06/20 01:24:39;;;;;;;30.80;22.55;;;;;;;19.16;91.23;100514.78;5132851;27;20085;-55
2021/06/20 01:27:06;;;;;;;30.00;22.92;;;;;;;19.21;90.64;100509.81;5129991;27;20043;-56
2021/06/20 01:29:34;;;;;;;24.13;18.05;;;;;;;19.30;90.15;100504.50;5133689;27;20047;-56
2021/06/20 01:32:01;;;;;;;24.52;18.80;;;;;;;19.32;90.27;100498.00;5117077;27;20035;-58
2021/06/20 01:34:28;;;;;;;25.77;18.83;;;;;;;19.33;90.05;100494.31;5132811;27;20085;-53
2021/06/20 01:36:54;;;;;;;20.05;15.65;;;;;;;19.36;90.31;100477.16;5132563;27;20043;-56
2021/06/20 01:39:21;;;;;;;21.92;14.90;;;;;;;19.41;90.19;100497.00;5132560;27;20047;-57
2021/06/20 01:41:48;;;;;;;17.30;12.82;;;;;;;19.46;89.97;100501.84;5131853;27;20494;-57
2021/06/20 01:44:15;;;;;;;16.85;12.23;;;;;;;19.46;89.82;100512.50;5132308;27;20063;-57
2021/06/20 01:46:48;;;;;;;15.82;11.98;;;;;;;19.50;90.21;100529.00;5130984;27;20051;-58
2021/06/20 01:49:15;;;;;;;17.77;11.25;;;;;;;19.53;90.32;100547.34;5132360;27;20047;-57
2021/06/20 01:51:43;;;;;;;17.17;11.77;;;;;;;19.54;90.92;100551.69;5133171;27;20043;-57
2021/06/20 01:54:09;;;;;;;16.90;11.88;;;;;;;19.59;91.22;100555.50;5133471;27;20047;-57
2021/06/20 01:56:36;;;;;;;17.02;11.15;;;;;;;19.63;91.43;100553.31;5130411;27;20096;-57
2021/06/20 01:59:03;;;;;;;19.35;11.70;;;;;;;19.64;91.38;100539.00;5096357;27;20058;-57
2021/06/20 02:01:30;;;;;;;15.20;12.02;;;;;;;19.64;91.44;100515.00;5097609;27;20043;-57
2021/06/20 02:03:58;;;;;;;15.50;11.27;;;;;;;19.64;90.87;100504.31;5116213;27;20047;-57
2021/06/20 02:06:25;;;;;;;16.15;12.15;;;;;;;19.68;90.68;100508.31;5131510;27;20541;-57
2021/06/20 02:08:52;;;;;;;17.67;13.07;;;;;;;19.70;90.49;100495.66;5132545;27;20067;-57
2021/06/20 02:11:18;;;;;;;17.63;12.30;;;;;;;19.70;90.90;100500.16;5134378;27;20104;-57
2021/06/20 02:13:45;;;;;;;16.35;12.88;;;;;;;19.70;90.63;100482.31;5132139;27;20042;-58
2021/06/20 02:16:12;;;;;;;17.65;12.98;;;;;;;19.73;90.20;100489.16;5130832;27;20042;-58
2021/06/20 02:18:39;;;;;;;17.13;13.30;;;;;;;19.74;90.12;100493.47;5096116;27;20043;-56
2021/06/20 02:21:06;;;;;;;18.42;13.70;;;;;;;19.72;90.73;100488.31;5131556;27;20121;-57
2021/06/20 02:23:32;;;;;;;17.50;13.15;;;;;;;19.75;90.14;100485.28;5133952;27;20051;-57
2021/06/20 02:25:59;;;;;;;18.30;13.80;;;;;;;19.81;89.74;100501.66;5133959;27;20058;-56
2021/06/20 02:28:26;;;;;;;18.35;14.00;;;;;;;19.82;90.60;100492.66;5115458;27;20049;-56
2021/06/20 02:30:53;;;;;;;16.17;13.10;;;;;;;19.82;90.56;100492.66;5115615;27;20051;-57
2021/06/20 02:33:20;;;;;;;17.90;13.18;;;;;;;19.87;91.35;100507.16;5133181;27;20056;-56
2021/06/20 02:35:46;;;;;;;15.10;11.95;;;;;;;19.89;91.27;100497.16;5130495;27;20066;-57
2021/06/20 02:38:13;;;;;;;18.27;12.25;;;;;;;19.92;91.23;100482.66;5113028;27;20055;-56
2021/06/20 02:40:40;;;;;;;15.55;11.48;;;;;;;19.91;91.17;100481.81;5130587;27;20051;-57
2021/06/20 02:43:07;;;;;;;15.68;12.15;;;;;;;19.94;91.03;100485.97;5130214;27;20624;-57
2021/06/20 02:45:33;;;;;;;16.48;11.77;;;;;;;19.94;91.26;100515.31;5129606;27;20541;-57
2021/06/20 02:48:00;;;;;;;17.23;12.40;;;;;;;19.91;91.27;100529.00;5130107;27;20108;-56
2021/06/20 02:50:29;;;;;;;15.90;11.57;;;;;;;19.91;91.93;100534.34;5130723;27;20499;-57
2021/06/20 02:52:56;;;;;;;16.75;11.88;;;;;;;19.94;91.50;100534.00;5095617;27;20385;-56
2021/06/20 02:55:22;;;;;;;15.38;12.20;;;;;;;19.95;92.27;100535.69;5112760;27;20047;-57
2021/06/20 02:57:50;;;;;;;15.13;12.35;;;;;;;19.97;91.51;100531.00;5113925;27;20173;-57
2021/06/20 03:00:17;;;;;;;17.90;13.93;;;;;;;20.01;91.47;100540.31;5130016;27;20099;-58
2021/06/20 03:02:47;;;;;;;25.40;17.77;;;;;;;19.95;91.25;100538.34;5129728;27;20057;-58
2021/06/20 03:05:13;;;;;;;27.85;19.90;;;;;;;19.90;91.02;100530.84;5112276;27;20055;-57
2021/06/20 03:07:40;;;;;;;29.33;24.00;;;;;;;19.91;90.92;100521.00;5131764;27;20047;-55
2021/06/20 03:10:08;;;;;;;30.77;23.67;;;;;;;19.96;90.53;100516.00;5132936;27;20556;-56
2021/06/20 03:12:35;;;;;;;33.28;22.95;;;;;;;19.97;89.76;100519.50;5115098;27;20058;-56
2021/06/20 03:15:02;;;;;;;32.30;24.13;;;;;;;19.91;90.01;100510.34;5133449;27;20050;-55
2021/06/20 03:17:29;;;;;;;32.55;24.02;;;;;;;19.87;90.31;100512.50;5114588;28;20047;-56
2021/06/20 03:19:57;;;;;;;31.00;24.02;;;;;;;19.91;90.07;100519.16;5130565;28;20059;-56
2021/06/20 03:22:24;;;;;;;30.88;22.63;;;;;;;19.93;90.47;100519.00;5130909;28;20166;-55
2021/06/20 03:24:51;;;;;;;34.10;24.70;;;;;;;19.91;90.15;100511.16;5130420;28;20051;-57
2021/06/20 03:27:19;;;;;;;31.13;24.15;;;;;;;19.92;90.01;100522.69;5130371;28;20050;-56
2021/06/20 03:29:47;;;;;;;34.42;26.48;;;;;;;19.94;90.36;100528.66;5111174;28;20825;-57
2021/06/20 03:32:15;;;;;;;34.90;25.65;;;;;;;19.93;90.28;100521.66;5130637;28;20047;-57
2021/06/20 03:34:42;;;;;;;36.70;26.98;;;;;;;19.86;90.21;100526.84;5130499;28;20047;-57
2021/06/20 03:37:09;;;;;;;39.30;28.23;;;;;;;19.82;90.90;100538.03;5132136;28;20055;-57
2021/06/20 03:39:40;;;;;;;34.95;26.77;;;;;;;19.84;89.91;100539.53;5131058;28;20422;-56
2021/06/20 03:42:07;;;;;;;34.92;27.13;;;;;;;19.88;89.95;100542.69;5129402;28;20041;-56
2021/06/20 03:44:34;;;;;;;37.35;28.30;;;;;;;19.86;89.58;100542.84;5132852;28;20527;-57
2021/06/20 03:47:01;;;;;;;37.67;28.45;;;;;;;19.75;89.55;100549.31;5113632;28;20054;-58
2021/06/20 03:49:28;;;;;;;35.65;27.05;;;;;;;19.82;89.53;100543.34;5112121;28;20122;-57
2021/06/20 03:51:55;;;;;;;39.53;29.08;;;;;;;19.75;89.29;100548.50;5130216;28;20502;-57
2021/06/20 03:54:24;;;;;;;38.88;29.45;;;;;;;19.71;89.33;100550.66;5130318;28;20047;-57
2021/06/20 03:56:53;;;;;;;41.08;31.02;;;;;;;19.69;89.33;100552.66;5112031;28;20507;-57
2021/06/20 03:59:20;;;;;;;37.60;29.35;;;;;;;19.63;88.91;100555.16;5131774;28;20065;-57
2021/06/20 04:01:46;;;;;;;40.33;30.20;;;;;;;19.50;88.89;100561.00;5128861;28;20039;-55
2021/06/20 04:04:13;;;;;;;43.83;31.38;;;;;;;19.36;89.46;100562.47;5130640;28;20055;-57
2021/06/20 04:06:40;;;;;;;39.92;29.02;;;;;;;19.25;88.25;100555.63;5111799;28;20441;-56
2021/06/20 04:09:07;;;;;;;39.25;29.25;;;;;;;19.28;88.23;100565.97;5130672;28;20059;-56
2021/06/20 04:11:34;;;;;;;37.47;28.92;;;;;;;19.16;87.45;100570.78;5133139;28;20453;-56
2021/06/20 04:14:01;;;;;;;39.88;28.58;;;;;;;19.14;87.57;100561.25;5134008;27;20035;-57
2021/06/20 04:16:28;;;;;;;39.78;28.02;;;;;;;19.06;87.31;100564.72;5118792;27;20054;-56
2021/06/20 04:18:55;;;;;;;36.05;26.38;;;;;;;18.96;87.22;100567.53;5136763;27;20108;-55
2021/06/20 04:21:22;;;;;;;37.38;26.33;;;;;;;18.94;87.18;100572.22;5136647;27;20043;-57
2021/06/20 04:23:48;;;;;;;37.28;26.63;;;;;;;18.83;87.91;100591.09;5136741;27;20043;-57
2021/06/20 04:26:15;;;;;;;36.90;25.98;;;;;;;18.86;87.38;100596.13;5116760;27;20059;-56
2021/06/20 04:28:43;;;;;;;37.60;27.23;;;;;;;18.77;87.68;100597.06;5099156;27;20115;-58
2021/06/20 04:31:10;;;;;;;37.50;27.42;;;;;;;18.82;87.97;100608.09;5115339;27;20052;-53
2021/06/20 04:33:37;;;;;;;36.63;26.33;;;;;;;18.75;87.71;100605.22;5136418;27;20149;-57
2021/06/20 04:36:04;;;;;;;36.45;26.48;;;;;;;18.78;87.90;100614.75;5133470;27;20058;-56
2021/06/20 04:38:31;;;;;;;40.78;26.80;;;;;;;18.83;87.44;100609.75;5115440;27;20099;-56
2021/06/20 04:41:03;;;;;;;39.70;28.60;;;;;;;18.68;87.67;100618.34;5115651;27;20040;-57
2021/06/20 04:46:28;;;;;;;41.20;28.00;;;;;;;18.71;87.62;100617.19;5136028;27;20495;-56
2021/06/20 04:49:03;;;;;;;38.65;26.75;;;;;;;18.61;87.96;100622.66;5133166;27;20055;-57
2021/06/20 04:51:32;;;;;;;39.75;27.50;;;;;;;18.62;88.13;100623.47;5134236;27;20051;-57
2021/06/20 04:53:59;;;;;;;41.53;28.05;;;;;;;18.70;87.89;100629.66;5116280;27;20039;-55
2021/06/20 04:56:26;;;;;;;42.38;28.00;;;;;;;18.71;88.25;100620.69;5115073;27;20055;-55
2021/06/20 04:58:54;;;;;;;41.53;27.95;;;;;;;18.59;88.20;100627.28;5114450;27;20043;-57
2021/06/20 05:01:21;;;;;;;42.20;28.75;;;;;;;18.64;87.76;100635.63;5132432;27;20136;-57
2021/06/20 05:03:49;;;;;;;41.25;27.58;;;;;;;18.62;88.25;100629.63;5133185;27;20036;-55
2021/06/20 05:06:16;;;;;;;39.38;26.92;;;;;;;18.64;87.93;100630.31;5133893;27;20039;-56
2021/06/20 05:08:43;;;;;;;43.05;28.42;;;;;;;18.62;88.59;100636.78;5135823;27;20051;-56
2021/06/20 05:11:11;;;;;;;39.42;27.08;;;;;;;18.66;88.02;100630.16;5133329;27;20054;-56
2021/06/20 05:13:37;;;;;;;39.28;25.88;;;;;;;18.70;87.94;100631.50;5114889;27;20582;-56
2021/06/20 05:16:05;;;;;;;39.90;27.48;;;;;;;18.68;88.00;100621.00;5135591;27;20051;-56
2021/06/20 05:18:33;;;;;;;42.17;27.60;;;;;;;18.63;88.81;100636.63;5134414;27;20051;-56
2021/06/20 05:21:00;;;;;;;43.17;28.48;;;;;;;18.70;88.59;100644.81;5114653;27;20541;-55
2021/06/20 05:23:26;;;;;;;40.80;28.63;;;;;;;18.77;88.63;100645.03;5115779;27;20047;-55
2021/06/20 05:25:53;;;;;;;40.78;28.00;;;;;;;18.74;87.98;100652.31;5134797;27;20495;-56
2021/06/20 05:28:20;;;;;;;41.90;28.55;;;;;;;18.70;88.17;100650.16;5135103;27;20039;-55
2021/06/20 05:30:47;;;;;;;43.33;27.63;;;;;;;18.74;88.14;100652.31;5083375;27;20055;-55
2021/06/20 05:33:16;;;;;;;37.90;26.80;;;;;;;18.66;87.90;100668.25;5117471;27;20082;-56
2021/06/20 05:35:43;;;;;;;38.42;25.40;;;;;;;18.63;88.33;100668.56;5116962;27;20043;-55
2021/06/20 05:38:11;;;;;;;38.85;25.63;;;;;;;18.64;87.60;100674.72;5135005;27;20497;-56
2021/06/20 05:40:38;;;;;;;38.72;25.20;;;;;;;18.70;88.14;100674.13;5135043;27;20479;-54
2021/06/20 05:43:05;;;;;;;40.00;26.13;;;;;;;18.74;87.54;100672.81;5117053;27;20042;-56
2021/06/20 05:45:33;;;;;;;37.20;24.13;;;;;;;18.82;87.06;100667.53;5115994;27;20057;-55
2021/06/20 05:48:00;;;;;;;37.25;25.27;;;;;;;18.81;87.29;100670.34;5131800;27;20444;-55
2021/06/20 05:50:27;;;;;;;38.60;25.55;;;;;;;18.84;86.99;100683.34;5133571;27;20054;-53
2021/06/20 05:52:54;;;;;;;38.67;24.50;;;;;;;18.83;86.95;100682.53;5132884;27;20043;-55
2021/06/20 05:55:20;;;;;;;38.33;24.60;;;;;;;18.85;86.61;100690.34;5132007;27;20406;-56
2021/06/20 05:57:48;;;;;;;40.08;26.08;;;;;;;18.87;86.76;100685.69;5131694;27;20462;-56
2021/06/20 06:00:15;;;;;;;36.50;26.23;;;;;;;18.88;87.01;100692.72;5112708;27;20051;-57
2021/06/20 06:02:43;;;;;;;34.22;23.70;;;;;;;18.91;86.96;100697.75;5097580;27;20097;-55
2021/06/20 06:05:10;;;;;;;40.17;25.52;;;;;;;18.93;86.35;100703.75;5113357;27;20055;-56
2021/06/20 06:07:37;;;;;;;39.22;26.75;;;;;;;18.82;86.88;100709.31;5097047;27;20514;-56
2021/06/20 06:10:23;;;;;;;39.88;25.83;;;;;;;18.76;87.54;100718.78;5116409;27;20384;-57
2021/06/20 06:12:51;;;;;;;37.75;24.75;;;;;;;18.80;86.96;100717.47;5132324;27;20096;-56
2021/06/20 06:15:18;;;;;;;36.58;24.73;;;;;;;18.79;86.99;100720.28;5116106;27;20047;-57
2021/06/20 06:17:46;;;;;;;39.53;25.85;;;;;;;18.74;87.13;100708.25;5134503;27;20045;-58
2021/06/20 06:20:14;;;;;;;37.78;23.30;;;;;;;18.90;86.40;100718.22;5113627;27;20055;-58
2021/06/20 06:22:40;;;;;;;36.95;23.60;;;;;;;18.95;86.79;100719.56;5131753;27;20058;-59
2021/06/20 06:25:08;;;;;;;38.25;23.45;;;;;;;19.03;86.45;100714.28;5133347;27;20103;-58
2021/06/20 06:27:35;;;;;;;35.17;22.92;;;;;;;19.01;86.38;100703.78;5130878;27;20133;-58
2021/06/20 06:30:02;;;;;;;35.05;22.88;;;;;;;19.06;85.57;100703.31;5130742;27;20067;-57
2021/06/20 06:32:29;;;;;;;33.42;22.10;;;;;;;19.07;85.11;100723.63;5113078;27;20054;-58
2021/06/20 06:34:56;;;;;;;31.77;21.67;;;;;;;19.06;84.93;100716.63;5130637;27;20035;-57
2021/06/20 06:37:23;;;;;;;35.70;22.70;;;;;;;19.09;85.08;100703.00;5132541;27;20136;-56
2021/06/20 06:39:50;;;;;;;35.00;21.17;;;;;;;19.20;84.41;100701.91;5130631;27;20068;-55
2021/06/20 06:42:17;;;;;;;35.30;22.00;;;;;;;19.18;84.53;100711.88;5111744;27;20521;-56
2021/06/20 06:44:43;;;;;;;36.05;21.38;;;;;;;19.17;83.79;100723.50;5113557;27;20052;-56
2021/06/20 06:47:10;;;;;;;31.42;20.88;;;;;;;19.17;83.43;100723.50;5112614;27;20062;-56
2021/06/20 06:49:37;;;;;;;30.65;20.98;;;;;;;19.27;83.45;100734.91;5131142;27;20437;-53
2021/06/20 06:52:04;;;;;;;30.63;21.20;;;;;;;19.25;83.56;100743.06;5112669;27;20100;-56
2021/06/20 06:54:31;;;;;;;33.90;22.92;;;;;;;19.21;82.51;100735.53;5130973;27;20398;-56
2021/06/20 06:56:57;;;;;;;34.13;21.67;;;;;;;19.21;83.21;100748.84;5132547;27;20065;-56
2021/06/20 06:59:24;;;;;;;33.53;23.52;;;;;;;19.33;83.89;100749.44;5133686;27;20062;-56
2021/06/20 07:01:51;;;;;;;32.28;22.50;;;;;;;19.36;81.58;100749.09;5133690;27;20353;-56
2021/06/20 07:04:18;;;;;;;32.28;21.55;;;;;;;19.47;82.06;100754.16;5112210;27;20078;-57
2021/06/20 07:06:45;;;;;;;33.20;21.80;;;;;;;19.48;82.50;100752.31;5112506;27;20120;-57
2021/06/20 07:09:11;;;;;;;33.47;21.30;;;;;;;19.60;83.41;100756.38;5113509;28;20415;-57
2021/06/20 07:11:38;;;;;;;30.95;20.85;;;;;;;19.69;81.81;100749.25;5130311;27;20050;-57
2021/06/20 07:14:05;;;;;;;29.65;20.70;;;;;;;19.73;81.18;100746.09;5130662;27;20055;-56
2021/06/20 07:16:32;;;;;;;32.65;21.10;;;;;;;19.76;81.17;100748.41;5129168;27;20051;-57
2021/06/20 07:18:59;;;;;;;35.45;21.52;;;;;;;19.77;80.65;100751.94;5131536;28;20546;-57
2021/06/20 07:21:26;;;;;;;33.92;21.35;;;;;;;19.76;80.25;100745.75;5132827;28;20088;-57
2021/06/20 07:23:52;;;;;;;32.33;21.05;;;;;;;19.83;80.00;100747.81;5130435;28;20491;-57
2021/06/20 07:26:19;;;;;;;36.17;21.48;;;;;;;19.87;80.56;100751.81;5129516;28;20051;-57
2021/06/20 07:28:48;;;;;;;32.60;21.50;;;;;;;19.91;79.39;100750.50;5130589;28;20100;-57
2021/06/20 07:31:15;;;;;;;31.33;20.85;;;;;;;19.84;79.27;100757.50;5112020;28;20731;-57
2021/06/20 07:33:42;;;;;;;32.53;20.88;;;;;;;19.93;79.56;100748.47;5112006;28;20112;-57
2021/06/20 07:36:10;;;;;;;30.05;21.13;;;;;;;20.02;79.54;100744.00;5130433;28;20043;-57
2021/06/20 07:38:37;;;;;;;30.40;20.67;;;;;;;19.96;79.32;100750.00;5132172;28;20055;-58
2021/06/20 07:41:04;;;;;;;29.83;19.92;;;;;;;19.97;77.97;100754.34;5131001;28;20046;-57
2021/06/20 07:43:31;;;;;;;28.35;19.45;;;;;;;19.93;78.06;100765.34;5129885;28;20043;-57
2021/06/20 07:45:58;;;;;;;30.95;19.05;;;;;;;20.06;77.51;100764.03;5132083;28;20059;-56
2021/06/20 07:48:25;;;;;;;29.42;19.80;;;;;;;20.09;78.58;100767.19;5132609;27;20062;-57
2021/06/20 07:50:53;;;;;;;26.45;18.52;;;;;;;20.23;76.55;100770.22;5115723;27;20051;-57
2021/06/20 07:53:21;;;;;;;28.50;18.90;;;;;;;20.25;76.44;100781.59;5115987;27;20047;-57
2021/06/20 07:55:48;;;;;;;25.20;18.42;;;;;;;20.41;76.87;100784.28;5118116;27;20054;-56
2021/06/20 07:58:14;;;;;;;26.70;17.40;;;;;;;20.44;76.17;100783.94;5119094;27;20534;-57
2021/06/20 08:00:41;;;;;;;26.10;17.27;;;;;;;20.46;75.36;100789.09;5118052;27;20043;-58
2021/06/20 08:03:09;;;;;;;24.58;16.67;;;;;;;20.46;75.01;100797.13;5133994;27;20039;-58
2021/06/20 08:05:36;;;;;;;21.50;15.15;;;;;;;20.47;74.10;100792.63;5135359;27;20050;-58
2021/06/20 08:08:03;;;;;;;23.27;16.35;;;;;;;20.51;74.36;100796.63;5135132;27;20075;-58
2021/06/20 08:10:29;;;;;;;22.10;15.52;;;;;;;20.54;75.09;100798.97;5134175;27;20444;-58
2021/06/20 08:12:56;;;;;;;24.38;15.77;;;;;;;20.51;73.67;100797.47;5114825;27;20092;-58
2021/06/20 08:15:26;;;;;;;22.58;15.52;;;;;;;20.54;74.10;100805.13;5136574;27;20495;-57
2021/06/20 08:17:53;;;;;;;21.40;15.00;;;;;;;20.66;73.85;100805.63;5136489;27;20047;-57
2021/06/20 08:20:20;;;;;;;22.38;14.73;;;;;;;20.77;73.55;100805.31;5135184;27;20122;-58
2021/06/20 08:22:46;;;;;;;22.48;15.45;;;;;;;20.80;73.00;100812.19;5133662;27;20043;-58
2021/06/20 08:25:13;;;;;;;22.08;14.00;;;;;;;20.90;72.70;100803.97;5101172;27;20035;-58
2021/06/20 08:27:41;;;;;;;19.95;13.63;;;;;;;20.97;73.15;100804.13;5115085;27;20047;-57
2021/06/20 08:30:10;;;;;;;23.88;15.48;;;;;;;21.03;72.79;100806.16;5115256;27;20560;-57
2021/06/20 08:32:37;;;;;;;22.10;15.05;;;;;;;21.02;72.07;100805.28;5132600;27;20104;-58
2021/06/20 08:35:05;;;;;;;19.83;14.52;;;;;;;21.06;72.18;100811.16;5133400;27;20047;-58
2021/06/20 08:37:31;;;;;;;21.25;14.40;;;;;;;21.11;70.62;100806.97;5133602;27;20070;-57
2021/06/20 08:39:58;;;;;;;21.08;14.25;;;;;;;21.13;70.17;100808.63;5115210;27;20047;-58
2021/06/20 08:42:25;;;;;;;20.98;13.68;;;;;;;21.00;70.27;100811.84;5133149;27;20050;-57
2021/06/20 08:44:52;;;;;;;19.77;14.15;;;;;;;21.03;70.41;100823.00;5115850;27;20096;-57
2021/06/20 08:47:19;;;;;;;20.70;13.55;;;;;;;21.03;70.77;100828.34;5135844;27;20059;-57
2021/06/20 08:49:46;;;;;;;20.13;12.77;;;;;;;21.20;70.19;100836.34;5118055;27;20047;-57
2021/06/20 08:52:13;;;;;;;19.42;13.05;;;;;;;21.20;70.96;100841.69;5134159;27;20070;-58
2021/06/20 08:55:00;;;;;;;20.70;13.13;;;;;;;21.17;70.56;100844.72;5114885;27;20560;-58
2021/06/20 08:57:33;;;;;;;19.65;13.45;;;;;;;21.11;69.49;100852.41;5135070;27;20143;-58
2021/06/20 08:59:59;;;;;;;;;;;;;;;21.06;70.08;100851.25;5132405;27;20051;-57
2021/06/20 09:02:28;;;;;;;16.65;11.85;;;;;;;21.09;69.73;100850.91;5133994;27;19931;-57
2021/06/20 09:04:56;;;;;;;18.45;12.15;;;;;;;21.07;69.64;100856.41;5135204;27;20091;-57
2021/06/20 09:07:37;;;;;;;17.38;11.82;;;;;;;21.03;69.96;100867.63;5116843;27;20128;-57
2021/06/20 09:10:22;;;;;;;18.58;12.52;;;;;;;21.18;70.45;100873.97;5134593;27;20042;-57
2021/06/20 09:12:49;;;;;;;19.80;12.07;;;;;;;21.33;69.96;100873.28;5113898;27;20108;-57
2021/06/20 09:15:19;;;;;;;20.38;12.57;;;;;;;21.29;69.75;100875.44;5132390;27;20050;-57
2021/06/20 09:18:08;;;;;;;16.92;11.55;;;;;;;21.45;69.88;100878.09;5134521;27;20055;-58
2021/06/20 09:20:40;;;;;;;16.25;10.98;;;;;;;21.54;70.52;100859.38;5130541;27;20495;-58
2021/06/20 09:23:09;;;;;;;17.03;10.90;;;;;;;21.63;69.95;100866.38;5096702;27;20054;-57
2021/06/20 09:25:38;;;;;;;15.30;10.70;;;;;;;21.61;68.98;100857.69;5131962;27;20054;-57
2021/06/20 09:28:05;;;;;;;17.98;10.90;;;;;;;21.68;68.70;100864.03;5112634;27;20047;-57
2021/06/20 09:30:39;;;;;;;15.45;10.80;;;;;;;21.69;67.95;100860.34;5135530;27;20051;-57
2021/06/20 09:33:08;;;;;;;16.52;10.95;;;;;;;21.72;67.85;100862.66;5133684;27;20055;-57
2021/06/20 09:35:42;;;;;;;16.38;10.77;;;;;;;21.84;67.27;100860.47;5096080;27;20043;-58
2021/06/20 09:38:21;;;;;;;13.90;9.48;;;;;;;21.95;66.82;100859.22;5134303;27;20047;-58
2021/06/20 09:40:52;;;;;;;15.65;10.43;;;;;;;22.12;66.31;100860.81;5134558;27;20051;-58
2021/06/20 09:43:19;;;;;;;13.93;9.85;;;;;;;22.20;65.76;100851.91;5132065;27;20059;-58
2021/06/20 09:45:47;;;;;;;14.73;9.10;;;;;;;22.20;66.63;100849.22;5131434;27;20047;-59
2021/06/20 09:48:25;;;;;;;14.85;10.13;;;;;;;22.37;65.34;100858.00;5113825;27;20055;-59
2021/06/20 09:50:54;;;;;;;15.85;9.77;;;;;;;22.52;66.83;100851.91;5097621;27;20047;-58
2021/06/20 09:53:35;;;;;;;14.38;9.50;;;;;;;22.75;65.30;100859.94;5114460;27;20043;-57
2021/06/20 09:56:11;;;;;;;15.68;9.40;;;;;;;22.78;63.54;100857.75;5134810;27;20074;-57
2021/06/20 09:58:42;;;;;;;12.55;8.15;;;;;;;23.00;64.52;100865.09;5134564;27;20104;-58
2021/06/20 10:01:11;;;;;;;11.60;7.57;;;;;;;23.53;64.37;100865.09;5134600;27;20125;-57
2021/06/20 10:03:38;;;;;;;10.35;6.80;;;;;;;23.75;58.69;100860.63;5112977;27;20047;-57
2021/06/20 10:06:05;;;;;;;10.80;5.78;;;;;;;23.98;59.69;100865.91;5131331;27;20051;-58
2021/06/20 10:08:32;;;;;;;9.85;6.25;;;;;;;23.92;58.47;100872.88;5114032;27;20051;-58
2021/06/20 10:10:59;;;;;;;9.55;6.00;;;;;;;24.00;59.15;100869.25;5132227;27;20119;-57
2021/06/20 10:13:26;;;;;;;8.65;5.60;;;;;;;24.04;58.91;100873.22;5132065;27;20081;-57
2021/06/20 10:15:53;;;;;;;9.02;5.45;;;;;;;24.10;58.61;100872.47;5130709;27;20441;-56
2021/06/20 10:18:20;;;;;;;11.85;5.07;;;;;;;24.41;57.63;100876.75;5116072;27;20395;-57
2021/06/20 10:20:47;;;;;;;9.05;6.18;;;;;;;24.46;57.29;100877.00;5116132;27;20035;-57
2021/06/20 10:23:19;;;;;;;9.73;6.43;;;;;;;24.47;57.13;100883.19;5114838;27;20047;-57
2021/06/20 10:25:46;;;;;;;9.45;5.75;;;;;;;24.89;56.89;100884.25;5131701;27;20043;-57
2021/06/20 10:28:14;;;;;;;8.50;5.47;;;;;;;25.37;58.82;100878.22;5112491;27;20502;-57
2021/06/20 10:30:43;;;;;;;9.95;5.85;;;;;;;25.53;55.50;100881.66;5133667;27;20058;-57
2021/06/20 10:33:21;;;;;;;10.75;5.78;;;;;;;25.61;53.92;100873.41;5131129;27;20550;-57
2021/06/20 10:36:01;;;;;;;8.38;5.32;;;;;;;25.64;52.54;100871.13;5132259;27;20059;-57
2021/06/20 10:38:32;;;;;;;7.97;4.97;;;;;;;25.72;51.87;100874.72;5131859;27;20043;-57
2021/06/20 10:40:59;;;;;;;8.18;4.80;;;;;;;25.94;51.60;100876.25;5112962;27;20062;-57
2021/06/20 10:43:26;;;;;;;8.27;5.10;;;;;;;26.25;50.07;100874.13;5115259;27;20047;-58
2021/06/20 10:45:52;;;;;;;8.80;4.82;;;;;;;26.58;50.32;100870.66;5112237;27;20084;-58
2021/06/20 10:48:24;;;;;;;7.30;4.53;;;;;;;26.86;50.75;100872.38;5130386;27;20054;-57
2021/06/20 10:50:53;;;;;;;8.23;4.93;;;;;;;27.10;49.61;100868.22;5132728;27;20051;-57
2021/06/20 10:53:21;;;;;;;7.57;4.82;;;;;;;27.32;49.80;100872.34;5115433;27;20111;-57
2021/06/20 10:55:47;;;;;;;8.30;5.40;;;;;;;26.93;46.90;100868.66;5133061;27;20511;-58
2021/06/20 10:58:36;;;;;;;8.25;5.28;;;;;;;27.01;49.33;100859.53;5130271;27;20051;-58
2021/06/20 11:01:07;;;;;;;10.25;7.07;;;;;;;26.79;48.26;100861.56;5132124;27;20499;-57
2021/06/20 11:03:34;;;;;;;10.77;6.55;;;;;;;27.23;48.82;100864.66;5133492;27;20054;-57
2021/06/20 11:06:04;;;;;;;9.18;5.82;;;;;;;27.51;48.55;100864.44;5111687;27;20122;-57
2021/06/20 11:08:39;;;;;;;10.88;6.03;;;;;;;27.81;47.32;100869.31;5131358;27;20096;-59
2021/06/20 11:11:36;;;;;;;7.88;4.93;;;;;;;28.27;44.84;100856.66;5132155;27;20043;-56
2021/06/20 11:14:05;;;;;;;9.38;5.07;;;;;;;28.54;46.83;100861.88;5096042;28;20059;-57
2021/06/20 11:16:53;;;;;;;10.60;6.40;;;;;;;28.08;45.28;100856.53;5129582;27;20092;-59
2021/06/20 11:19:25;;;;;;;9.15;5.57;;;;;;;28.13;45.67;100855.91;5127564;28;20419;-59